sensor_id;sensor_type;location;lat;lon;timestamp;pressure;altitude;pressure_sealevel;temperature;humidity
15914;BME280;8055;51.930;8.840;2023-03-13T00:00:56;75503.97;;;-145.72;100.00
15914;BME280;8055;51.930;8.840;2023-03-13T00:03:22;75493.63;;;-145.72;100.00
15914;BME280;8055;51.930;8.840;2023-03-13T00:05:48;75493.63;;;-145.72;100.00
15914;BME280;8055;51.930;8.840;2023-03-13T00:08:13;75487.41;;;-145.72;100.00
15914;BME280;8055;51.930;8.840;2023-03-13T00:10:39;75487.41;;;-145.72;100.00
15914;BME280;8055;51.930;8.840;2023-03-13T00:13:06;75477.06;;;-145.72;100.00
15914;BME280;8055;51.930;8.840;2023-03-13T00:15:32;75477.06;;;-145.72;100.00
15914;BME280;8055;51.930;8.840;2023-03-13T00:17:58;75483.28;;;-145.72;100.00
15914;BME280;8055;51.930;8.840;2023-03-13T00:20:24;75493.63;;;-145.72;100.00
15914;BME280;8055;51.930;8.840;2023-03-13T00:22:49;75491.56;;;-145.72;100.00
15914;BME280;8055;51.930;8.840;2023-03-13T00:25:14;75489.50;;;-145.72;100.00
15914;BME280;8055;51.930;8.840;2023-03-13T00:27:40;75491.56;;;-145.72;100.00
15914;BME280;8055;51.930;8.840;2023-03-13T00:30:06;75489.50;;;-145.72;100.00
15914;BME280;8055;51.930;8.840;2023-03-13T00:32:32;75477.06;;;-145.72;100.00
15914;BME280;8055;51.930;8.840;2023-03-13T00:34:57;75475.00;;;-145.72;100.00
15914;BME280;8055;51.930;8.840;2023-03-13T00:37:23;75479.13;;;-145.72;100.00
15914;BME280;8055;51.930;8.840;2023-03-13T00:39:48;75481.22;;;-145.72;100.00
15914;BME280;8055;51.930;8.840;2023-03-13T00:42:13;75472.94;;;-145.72;100.00
15914;BME280;8055;51.930;8.840;2023-03-13T00:44:39;75477.06;;;-145.72;100.00
15914;BME280;8055;51.930;8.840;2023-03-13T00:47:04;75464.66;;;-145.72;100.00
15914;BME280;8055;51.930;8.840;2023-03-13T00:49:31;75466.72;;;-145.72;100.00
15914;BME280;8055;51.930;8.840;2023-03-13T00:51:56;75475.00;;;-145.72;100.00
15914;BME280;8055;51.930;8.840;2023-03-13T00:54:22;75477.06;;;-145.72;100.00
15914;BME280;8055;51.930;8.840;2023-03-13T00:56:47;75468.78;;;-145.72;100.00
15914;BME280;8055;51.930;8.840;2023-03-13T00:59:13;75458.44;;;-145.72;100.00
15914;BME280;8055;51.930;8.840;2023-03-13T01:01:39;75443.97;;;-145.72;100.00
15914;BME280;8055;51.930;8.840;2023-03-13T01:04:06;75460.53;;;-145.72;100.00
15914;BME280;8055;51.930;8.840;2023-03-13T01:06:34;75464.66;;;-145.72;100.00
15914;BME280;8055;51.930;8.840;2023-03-13T01:09:02;75443.97;;;-145.72;100.00
15914;BME280;8055;51.930;8.840;2023-03-13T01:11:30;75448.09;;;-145.72;100.00
15914;BME280;8055;51.930;8.840;2023-03-13T01:13:59;75435.69;;;-145.72;100.00
15914;BME280;8055;51.930;8.840;2023-03-13T01:16:26;75425.34;;;-145.72;100.00
15914;BME280;8055;51.930;8.840;2023-03-13T01:18:54;75423.28;;;-145.72;100.00
15914;BME280;8055;51.930;8.840;2023-03-13T01:21:21;75412.94;;;-145.72;100.00
15914;BME280;8055;51.930;8.840;2023-03-13T01:23:48;75406.72;;;-145.72;100.00
15914;BME280;8055;51.930;8.840;2023-03-13T01:26:14;75408.78;;;-145.72;100.00
15914;BME280;8055;51.930;8.840;2023-03-13T01:28:39;75410.88;;;-145.72;100.00
15914;BME280;8055;51.930;8.840;2023-03-13T01:31:13;75398.44;;;-145.72;100.00
15914;BME280;8055;51.930;8.840;2023-03-13T01:33:39;75386.03;;;-145.72;100.00
15914;BME280;8055;51.930;8.840;2023-03-13T01:36:06;75377.75;;;-145.72;100.00
15914;BME280;8055;51.930;8.840;2023-03-13T01:38:31;75373.63;;;-145.72;100.00
15914;BME280;8055;51.930;8.840;2023-03-13T01:40:57;75359.13;;;-145.72;100.00
15914;BME280;8055;51.930;8.840;2023-03-13T01:43:24;75361.22;;;-145.72;100.00
15914;BME280;8055;51.930;8.840;2023-03-13T01:51:09;75348.78;;;-145.72;100.00
15914;BME280;8055;51.930;8.840;2023-03-13T01:53:37;75340.50;;;-145.72;100.00
15914;BME280;8055;51.930;8.840;2023-03-13T01:56:07;75334.31;;;-145.72;100.00
15914;BME280;8055;51.930;8.840;2023-03-13T01:58:36;75334.31;;;-145.72;100.00
15914;BME280;8055;51.930;8.840;2023-03-13T02:01:02;75336.38;;;-145.72;100.00
15914;BME280;8055;51.930;8.840;2023-03-13T02:03:28;75336.38;;;-145.72;100.00
15914;BME280;8055;51.930;8.840;2023-03-13T02:05:54;75328.09;;;-145.72;100.00
15914;BME280;8055;51.930;8.840;2023-03-13T02:08:25;75317.75;;;-145.72;100.00
15914;BME280;8055;51.930;8.840;2023-03-13T02:11:11;75307.41;;;-145.72;100.00
15914;BME280;8055;51.930;8.840;2023-03-13T02:13:39;75303.28;;;-145.72;100.00
15914;BME280;8055;51.930;8.840;2023-03-13T02:16:05;75290.84;;;-145.72;100.00
15914;BME280;8055;51.930;8.840;2023-03-13T02:18:30;75274.31;;;-145.72;100.00
15914;BME280;8055;51.930;8.840;2023-03-13T02:21:05;75286.72;;;-145.72;100.00
15914;BME280;8055;51.930;8.840;2023-03-13T02:23:38;75282.59;;;-145.72;100.00
15914;BME280;8055;51.930;8.840;2023-03-13T02:26:06;75284.66;;;-145.72;100.00
15914;BME280;8055;51.930;8.840;2023-03-13T02:28:36;75272.25;;;-145.72;100.00
15914;BME280;8055;51.930;8.840;2023-03-13T02:31:04;75278.44;;;-145.72;100.00
15914;BME280;8055;51.930;8.840;2023-03-13T02:33:33;75261.91;;;-145.72;100.00
15914;BME280;8055;51.930;8.840;2023-03-13T02:36:01;75257.75;;;-145.72;100.00
15914;BME280;8055;51.930;8.840;2023-03-13T02:38:29;75247.41;;;-145.72;100.00
15914;BME280;8055;51.930;8.840;2023-03-13T02:40:56;75249.47;;;-145.72;100.00
15914;BME280;8055;51.930;8.840;2023-03-13T02:43:30;75255.69;;;-145.72;100.00
15914;BME280;8055;51.930;8.840;2023-03-13T02:48:40;75245.34;;;-145.72;100.00
15914;BME280;8055;51.930;8.840;2023-03-13T02:51:12;75232.94;;;-145.72;100.00
15914;BME280;8055;51.930;8.840;2023-03-13T02:53:39;75241.19;;;-145.72;100.00
15914;BME280;8055;51.930;8.840;2023-03-13T02:56:05;75222.59;;;-145.72;100.00
15914;BME280;8055;51.930;8.840;2023-03-13T02:58:37;75218.44;;;-145.72;100.00
15914;BME280;8055;51.930;8.840;2023-03-13T03:01:03;75201.91;;;-145.72;100.00
15914;BME280;8055;51.930;8.840;2023-03-13T03:03:33;75189.47;;;-145.72;100.00
15914;BME280;8055;51.930;8.840;2023-03-13T03:05:59;75172.94;;;-145.72;100.00
15914;BME280;8055;51.930;8.840;2023-03-13T03:08:25;75164.66;;;-145.72;100.00
15914;BME280;8055;51.930;8.840;2023-03-13T03:10:50;75172.94;;;-145.72;100.00
15914;BME280;8055;51.930;8.840;2023-03-13T03:13:15;75168.78;;;-145.72;100.00
15914;BME280;8055;51.930;8.840;2023-03-13T03:15:41;75152.25;;;-145.72;100.00
15914;BME280;8055;51.930;8.840;2023-03-13T03:18:06;75152.25;;;-145.72;100.00
15914;BME280;8055;51.930;8.840;2023-03-13T03:20:31;75141.91;;;-145.72;100.00
15914;BME280;8055;51.930;8.840;2023-03-13T03:22:57;75154.31;;;-145.72;100.00
15914;BME280;8055;51.930;8.840;2023-03-13T03:25:22;75158.44;;;-145.72;100.00
15914;BME280;8055;51.930;8.840;2023-03-13T03:27:47;75150.16;;;-145.72;100.00
15914;BME280;8055;51.930;8.840;2023-03-13T03:30:14;75152.25;;;-145.72;100.00
15914;BME280;8055;51.930;8.840;2023-03-13T03:32:39;75152.25;;;-145.72;100.00
15914;BME280;8055;51.930;8.840;2023-03-13T03:35:05;75160.50;;;-145.72;100.00
15914;BME280;8055;51.930;8.840;2023-03-13T03:37:31;75141.91;;;-145.72;100.00
15914;BME280;8055;51.930;8.840;2023-03-13T03:39:56;75141.91;;;-145.72;100.00
15914;BME280;8055;51.930;8.840;2023-03-13T03:42:21;75146.03;;;-145.72;100.00
15914;BME280;8055;51.930;8.840;2023-03-13T03:44:47;75141.91;;;-145.72;100.00
15914;BME280;8055;51.930;8.840;2023-03-13T03:47:12;75133.63;;;-145.72;100.00
15914;BME280;8055;51.930;8.840;2023-03-13T03:49:37;75137.75;;;-145.72;100.00
15914;BME280;8055;51.930;8.840;2023-03-13T03:52:03;75123.28;;;-145.72;100.00
15914;BME280;8055;51.930;8.840;2023-03-13T03:54:28;75121.22;;;-145.72;100.00
15914;BME280;8055;51.930;8.840;2023-03-13T03:56:54;75117.06;;;-145.72;100.00
15914;BME280;8055;51.930;8.840;2023-03-13T03:59:20;75123.28;;;-145.72;100.00
15914;BME280;8055;51.930;8.840;2023-03-13T04:01:45;75119.13;;;-145.72;100.00
15914;BME280;8055;51.930;8.840;2023-03-13T04:04:11;75110.88;;;-145.72;100.00
15914;BME280;8055;51.930;8.840;2023-03-13T04:06:36;75100.53;;;-145.72;100.00
15914;BME280;8055;51.930;8.840;2023-03-13T04:09:02;75100.53;;;-145.72;100.00
15914;BME280;8055;51.930;8.840;2023-03-13T04:11:27;75098.44;;;-145.72;100.00
15914;BME280;8055;51.930;8.840;2023-03-13T04:13:53;75083.97;;;-145.72;100.00
15914;BME280;8055;51.930;8.840;2023-03-13T04:16:18;75096.38;;;-145.72;100.00
15914;BME280;8055;51.930;8.840;2023-03-13T04:18:43;75077.75;;;-145.72;100.00
15914;BME280;8055;51.930;8.840;2023-03-13T04:21:09;75079.81;;;-145.72;100.00
15914;BME280;8055;51.930;8.840;2023-03-13T04:23:34;75075.69;;;-145.72;100.00
15914;BME280;8055;51.930;8.840;2023-03-13T04:25:59;75077.75;;;-145.72;100.00
15914;BME280;8055;51.930;8.840;2023-03-13T04:28:25;75071.56;;;-145.72;100.00
15914;BME280;8055;51.930;8.840;2023-03-13T04:30:50;75071.56;;;-145.72;100.00
15914;BME280;8055;51.930;8.840;2023-03-13T04:33:17;75057.06;;;-145.72;100.00
15914;BME280;8055;51.930;8.840;2023-03-13T04:35:42;75055.00;;;-145.72;100.00
15914;BME280;8055;51.930;8.840;2023-03-13T04:38:08;75048.78;;;-145.72;100.00
15914;BME280;8055;51.930;8.840;2023-03-13T04:40:33;75038.44;;;-145.72;100.00
15914;BME280;8055;51.930;8.840;2023-03-13T04:42:59;75052.94;;;-145.72;100.00
15914;BME280;8055;51.930;8.840;2023-03-13T04:45:24;75055.00;;;-145.72;100.00
15914;BME280;8055;51.930;8.840;2023-03-13T04:47:49;75050.88;;;-145.72;100.00
15914;BME280;8055;51.930;8.840;2023-03-13T04:50:15;75046.72;;;-145.72;100.00
15914;BME280;8055;51.930;8.840;2023-03-13T04:52:40;75032.25;;;-145.72;100.00
15914;BME280;8055;51.930;8.840;2023-03-13T04:55:06;75023.97;;;-145.72;100.00
15914;BME280;8055;51.930;8.840;2023-03-13T04:57:31;75021.91;;;-145.72;100.00
15914;BME280;8055;51.930;8.840;2023-03-13T04:59:57;75023.97;;;-145.72;100.00
15914;BME280;8055;51.930;8.840;2023-03-13T05:02:22;75015.69;;;-145.72;100.00
15914;BME280;8055;51.930;8.840;2023-03-13T05:04:47;75005.34;;;-145.72;100.00
15914;BME280;8055;51.930;8.840;2023-03-13T05:07:13;74995.00;;;-145.72;100.00
15914;BME280;8055;51.930;8.840;2023-03-13T05:09:38;75007.41;;;-145.72;100.00
15914;BME280;8055;51.930;8.840;2023-03-13T05:12:04;74995.00;;;-145.72;100.00
15914;BME280;8055;51.930;8.840;2023-03-13T05:14:29;74986.72;;;-145.72;100.00
15914;BME280;8055;51.930;8.840;2023-03-13T05:16:55;74988.81;;;-145.72;100.00
15914;BME280;8055;51.930;8.840;2023-03-13T05:19:20;74992.94;;;-145.72;100.00
15914;BME280;8055;51.930;8.840;2023-03-13T05:21:45;74972.25;;;-145.72;100.00
15914;BME280;8055;51.930;8.840;2023-03-13T05:24:11;74966.03;;;-145.72;100.00
15914;BME280;8055;51.930;8.840;2023-03-13T05:26:36;74955.69;;;-145.72;100.00
15914;BME280;8055;51.930;8.840;2023-03-13T05:29:01;74953.63;;;-145.72;100.00
15914;BME280;8055;51.930;8.840;2023-03-13T05:31:27;74941.22;;;-145.72;100.00
15914;BME280;8055;51.930;8.840;2023-03-13T05:33:52;74930.88;;;-145.72;100.00
15914;BME280;8055;51.930;8.840;2023-03-13T05:36:17;74928.81;;;-145.72;100.00
15914;BME280;8055;51.930;8.840;2023-03-13T05:38:43;74928.81;;;-145.72;100.00
15914;BME280;8055;51.930;8.840;2023-03-13T05:41:08;74922.59;;;-145.72;100.00
15914;BME280;8055;51.930;8.840;2023-03-13T05:43:33;74912.25;;;-145.72;100.00
15914;BME280;8055;51.930;8.840;2023-03-13T05:45:59;74918.47;;;-145.72;100.00
15914;BME280;8055;51.930;8.840;2023-03-13T05:48:24;74910.19;;;-145.72;100.00
15914;BME280;8055;51.930;8.840;2023-03-13T05:50:49;74906.03;;;-145.72;100.00
15914;BME280;8055;51.930;8.840;2023-03-13T05:53:15;74914.31;;;-145.72;100.00
15914;BME280;8055;51.930;8.840;2023-03-13T05:55:41;74906.03;;;-145.72;100.00
15914;BME280;8055;51.930;8.840;2023-03-13T05:58:06;74891.56;;;-145.72;100.00
15914;BME280;8055;51.930;8.840;2023-03-13T06:00:32;74885.34;;;-145.72;100.00
15914;BME280;8055;51.930;8.840;2023-03-13T06:02:57;74864.66;;;-145.72;100.00
15914;BME280;8055;51.930;8.840;2023-03-13T06:05:23;74872.94;;;-145.72;100.00
15914;BME280;8055;51.930;8.840;2023-03-13T06:07:49;74848.13;;;-145.72;100.00
15914;BME280;8055;51.930;8.840;2023-03-13T06:10:14;74841.91;;;-145.72;100.00
15914;BME280;8055;51.930;8.840;2023-03-13T06:12:40;74854.31;;;-145.72;100.00
15914;BME280;8055;51.930;8.840;2023-03-13T06:15:06;74852.25;;;-145.72;100.00
15914;BME280;8055;51.930;8.840;2023-03-13T06:17:34;74850.19;;;-145.72;100.00
15914;BME280;8055;51.930;8.840;2023-03-13T06:19:59;74833.63;;;-145.72;100.00
15914;BME280;8055;51.930;8.840;2023-03-13T06:22:25;74839.84;;;-145.72;100.00
15914;BME280;8055;51.930;8.840;2023-03-13T06:24:50;74843.97;;;-145.72;100.00
15914;BME280;8055;51.930;8.840;2023-03-13T06:27:16;74858.47;;;-145.72;100.00
15914;BME280;8055;51.930;8.840;2023-03-13T06:29:41;74837.78;;;-145.72;100.00
15914;BME280;8055;51.930;8.840;2023-03-13T06:32:06;74850.19;;;-145.72;100.00
15914;BME280;8055;51.930;8.840;2023-03-13T06:34:32;74854.31;;;-145.72;100.00
15914;BME280;8055;51.930;8.840;2023-03-13T06:36:57;74841.91;;;-145.72;100.00
15914;BME280;8055;51.930;8.840;2023-03-13T06:39:24;74827.44;;;-145.72;100.00
15914;BME280;8055;51.930;8.840;2023-03-13T06:41:50;74827.44;;;-145.72;100.00
15914;BME280;8055;51.930;8.840;2023-03-13T06:44:15;74825.38;;;-145.72;100.00
15914;BME280;8055;51.930;8.840;2023-03-13T06:46:41;74823.28;;;-145.72;100.00
15914;BME280;8055;51.930;8.840;2023-03-13T06:49:06;74819.16;;;-145.72;100.00
15914;BME280;8055;51.930;8.840;2023-03-13T06:51:32;74827.44;;;-145.72;100.00
15914;BME280;8055;51.930;8.840;2023-03-13T06:53:57;74823.28;;;-145.72;100.00
15914;BME280;8055;51.930;8.840;2023-03-13T06:56:23;74806.75;;;-145.72;100.00
15914;BME280;8055;51.930;8.840;2023-03-13T06:58:49;74827.44;;;-145.72;100.00
15914;BME280;8055;51.930;8.840;2023-03-13T07:01:15;74794.34;;;-145.72;100.00
15914;BME280;8055;51.930;8.840;2023-03-13T07:03:42;74810.88;;;-145.72;100.00
15914;BME280;8055;51.930;8.840;2023-03-13T07:06:08;74821.22;;;-145.72;100.00
15914;BME280;8055;51.930;8.840;2023-03-13T07:08:35;74817.09;;;-145.72;100.00
15914;BME280;8055;51.930;8.840;2023-03-13T07:11:03;74812.94;;;-145.72;100.00
15914;BME280;8055;51.930;8.840;2023-03-13T07:13:29;74815.03;;;-145.72;100.00
15914;BME280;8055;51.930;8.840;2023-03-13T07:15:55;74819.16;;;-145.72;100.00
15914;BME280;8055;51.930;8.840;2023-03-13T07:18:23;74815.03;;;-145.72;100.00
15914;BME280;8055;51.930;8.840;2023-03-13T07:20:53;74808.81;;;-145.72;100.00
15914;BME280;8055;51.930;8.840;2023-03-13T07:23:20;74815.03;;;-145.72;100.00
15914;BME280;8055;51.930;8.840;2023-03-13T07:25:59;74804.69;;;-145.72;100.00
15914;BME280;8055;51.930;8.840;2023-03-13T07:28:26;74788.13;;;-145.72;100.00
15914;BME280;8055;51.930;8.840;2023-03-13T07:30:52;74804.69;;;-145.72;100.00
15914;BME280;8055;51.930;8.840;2023-03-13T07:33:17;74808.81;;;-145.72;100.00
15914;BME280;8055;51.930;8.840;2023-03-13T07:35:50;74810.88;;;-145.72;100.00
15914;BME280;8055;51.930;8.840;2023-03-13T07:38:17;74806.75;;;-145.72;100.00
15914;BME280;8055;51.930;8.840;2023-03-13T07:40:53;74794.34;;;-145.72;100.00
15914;BME280;8055;51.930;8.840;2023-03-13T07:43:19;74798.47;;;-145.72;100.00
15914;BME280;8055;51.930;8.840;2023-03-13T07:46:00;74784.00;;;-145.72;100.00
15914;BME280;8055;51.930;8.840;2023-03-13T07:48:33;74775.72;;;-145.72;100.00
15914;BME280;8055;51.930;8.840;2023-03-13T07:50:59;74779.84;;;-145.72;100.00
15914;BME280;8055;51.930;8.840;2023-03-13T07:53:26;74777.78;;;-145.72;100.00
15914;BME280;8055;51.930;8.840;2023-03-13T07:58:25;74742.63;;;-145.72;100.00
15914;BME280;8055;51.930;8.840;2023-03-13T08:00:51;74726.06;;;-145.72;100.00
15914;BME280;8055;51.930;8.840;2023-03-13T08:03:17;74719.88;;;-145.72;100.00
15914;BME280;8055;51.930;8.840;2023-03-13T08:05:42;74703.31;;;-145.72;100.00
15914;BME280;8055;51.930;8.840;2023-03-13T08:08:07;74692.97;;;-145.72;100.00
15914;BME280;8055;51.930;8.840;2023-03-13T08:10:33;74688.84;;;-145.72;100.00
15914;BME280;8055;51.930;8.840;2023-03-13T08:12:58;74686.75;;;-145.72;100.00
15914;BME280;8055;51.930;8.840;2023-03-13T08:15:24;74695.03;;;-145.72;100.00
15914;BME280;8055;51.930;8.840;2023-03-13T08:17:51;74668.16;;;-145.72;100.00
15914;BME280;8055;51.930;8.840;2023-03-13T08:20:17;74678.50;;;-145.72;100.00
15914;BME280;8055;51.930;8.840;2023-03-13T08:22:44;74668.16;;;-145.72;100.00
15914;BME280;8055;51.930;8.840;2023-03-13T08:25:11;74649.53;;;-145.72;100.00
15914;BME280;8055;51.930;8.840;2023-03-13T08:27:36;74645.38;;;-145.72;100.00
15914;BME280;8055;51.930;8.840;2023-03-13T08:30:02;74628.84;;;-145.72;100.00
15914;BME280;8055;51.930;8.840;2023-03-13T08:32:27;74628.84;;;-145.72;100.00
15914;BME280;8055;51.930;8.840;2023-03-13T08:34:53;74622.63;;;-145.72;100.00
15914;BME280;8055;51.930;8.840;2023-03-13T08:37:18;74626.78;;;-145.72;100.00
15914;BME280;8055;51.930;8.840;2023-03-13T08:39:43;74614.34;;;-145.72;100.00
15914;BME280;8055;51.930;8.840;2023-03-13T08:42:11;74589.53;;;-145.72;100.00
15914;BME280;8055;51.930;8.840;2023-03-13T08:44:38;74589.53;;;-145.72;100.00
15914;BME280;8055;51.930;8.840;2023-03-13T08:47:05;74595.75;;;-145.72;100.00
15914;BME280;8055;51.930;8.840;2023-03-13T08:49:31;74575.06;;;-145.72;100.00
15914;BME280;8055;51.930;8.840;2023-03-13T08:51:56;74570.91;;;-145.72;100.00
15914;BME280;8055;51.930;8.840;2023-03-13T08:54:21;74556.44;;;-145.72;100.00
15914;BME280;8055;51.930;8.840;2023-03-13T08:56:47;74556.44;;;-145.72;100.00
15914;BME280;8055;51.930;8.840;2023-03-13T08:59:12;74564.72;;;-145.72;100.00
15914;BME280;8055;51.930;8.840;2023-03-13T09:01:40;74541.97;;;-145.72;100.00
15914;BME280;8055;51.930;8.840;2023-03-13T09:04:06;74537.81;;;-145.72;100.00
15914;BME280;8055;51.930;8.840;2023-03-13T09:06:35;74523.34;;;-145.72;100.00
15914;BME280;8055;51.930;8.840;2023-03-13T09:09:02;74521.28;;;-145.72;100.00
15914;BME280;8055;51.930;8.840;2023-03-13T09:11:28;74517.13;;;-145.72;100.00
15914;BME280;8055;51.930;8.840;2023-03-13T09:13:54;74513.00;;;-145.72;100.00
15914;BME280;8055;51.930;8.840;2023-03-13T09:16:22;74508.88;;;-145.72;100.00
15914;BME280;8055;51.930;8.840;2023-03-13T09:18:48;74475.75;;;-145.72;100.00
15914;BME280;8055;51.930;8.840;2023-03-13T09:21:16;74467.50;;;-145.72;100.00
15914;BME280;8055;51.930;8.840;2023-03-13T09:23:42;74475.75;;;-145.72;100.00
15914;BME280;8055;51.930;8.840;2023-03-13T09:26:08;74475.75;;;-145.72;100.00
15914;BME280;8055;51.930;8.840;2023-03-13T09:28:34;74469.56;;;-145.72;100.00
15914;BME280;8055;51.930;8.840;2023-03-13T09:31:20;74467.50;;;-145.72;100.00
15914;BME280;8055;51.930;8.840;2023-03-13T09:33:47;74453.00;;;-145.72;100.00
15914;BME280;8055;51.930;8.840;2023-03-13T09:36:13;74463.34;;;-145.72;100.00
15914;BME280;8055;51.930;8.840;2023-03-13T09:38:39;74446.81;;;-145.72;100.00
15914;BME280;8055;51.930;8.840;2023-03-13T09:41:35;74430.25;;;-145.72;100.00
15914;BME280;8055;51.930;8.840;2023-03-13T09:46:44;74453.00;;;-145.72;100.00
15914;BME280;8055;51.930;8.840;2023-03-13T09:49:51;74446.81;;;-145.72;100.00
15914;BME280;8055;51.930;8.840;2023-03-13T09:52:23;74434.41;;;-145.72;100.00
15914;BME280;8055;51.930;8.840;2023-03-13T09:55:13;74446.81;;;-145.72;100.00
15914;BME280;8055;51.930;8.840;2023-03-13T10:00:23;74494.38;;;-145.72;100.00
15914;BME280;8055;51.930;8.840;2023-03-13T10:03:06;74494.38;;;-145.72;100.00
15914;BME280;8055;51.930;8.840;2023-03-13T10:05:43;74479.91;;;-145.72;100.00
15914;BME280;8055;51.930;8.840;2023-03-13T10:10:56;74475.75;;;-145.72;100.00
15914;BME280;8055;51.930;8.840;2023-03-13T10:13:37;74455.06;;;-145.72;100.00
15914;BME280;8055;51.930;8.840;2023-03-13T10:16:19;74459.22;;;-145.72;100.00
15914;BME280;8055;51.930;8.840;2023-03-13T10:18:51;74448.88;;;-145.72;100.00
15914;BME280;8055;51.930;8.840;2023-03-13T10:21:20;74419.91;;;-145.72;100.00
15914;BME280;8055;51.930;8.840;2023-03-13T10:23:55;74393.03;;;-145.72;100.00
15914;BME280;8055;51.930;8.840;2023-03-13T10:26:26;74370.28;;;-145.72;100.00
15914;BME280;8055;51.930;8.840;2023-03-13T10:28:54;74362.00;;;-145.72;100.00
15914;BME280;8055;51.930;8.840;2023-03-13T10:31:32;74345.44;;;-145.72;100.00
15914;BME280;8055;51.930;8.840;2023-03-13T10:34:17;74333.03;;;-145.72;100.00
15914;BME280;8055;51.930;8.840;2023-03-13T10:36:45;74330.97;;;-145.72;100.00
15914;BME280;8055;51.930;8.840;2023-03-13T10:39:18;74312.34;;;-145.72;100.00
15914;BME280;8055;51.930;8.840;2023-03-13T10:41:44;74326.84;;;-145.72;100.00
15914;BME280;8055;51.930;8.840;2023-03-13T10:44:29;74306.16;;;-145.72;100.00
15914;BME280;8055;51.930;8.840;2023-03-13T10:46:59;74297.88;;;-145.72;100.00
15914;BME280;8055;51.930;8.840;2023-03-13T10:49:26;74306.16;;;-145.72;100.00
15914;BME280;8055;51.930;8.840;2023-03-13T10:51:54;74293.72;;;-145.72;100.00
15914;BME280;8055;51.930;8.840;2023-03-13T10:59:46;74262.72;;;-145.72;100.00
15914;BME280;8055;51.930;8.840;2023-03-13T11:04:43;74281.31;;;-145.72;100.00
15914;BME280;8055;51.930;8.840;2023-03-13T11:07:27;74299.94;;;-145.72;100.00
15914;BME280;8055;51.930;8.840;2023-03-13T11:10:03;74275.13;;;-145.72;100.00
15914;BME280;8055;51.930;8.840;2023-03-13T11:12:44;74287.53;;;-145.72;100.00
15914;BME280;8055;51.930;8.840;2023-03-13T11:15:38;74273.06;;;-145.72;100.00
15914;BME280;8055;51.930;8.840;2023-03-13T11:18:31;74219.28;;;-145.72;100.00
15914;BME280;8055;51.930;8.840;2023-03-13T11:21:00;74239.94;;;-145.72;100.00
15914;BME280;8055;51.930;8.840;2023-03-13T11:23:31;74256.50;;;-145.72;100.00
15914;BME280;8055;51.930;8.840;2023-03-13T11:26:09;74256.50;;;-145.72;100.00
15914;BME280;8055;51.930;8.840;2023-03-13T11:28:52;74244.09;;;-145.72;100.00
15914;BME280;8055;51.930;8.840;2023-03-13T11:31:36;74231.69;;;-145.72;100.00
15914;BME280;8055;51.930;8.840;2023-03-13T11:34:21;74239.94;;;-145.72;100.00
15914;BME280;8055;51.930;8.840;2023-03-13T11:37:02;74229.63;;;-145.72;100.00
15914;BME280;8055;51.930;8.840;2023-03-13T11:43:06;74204.78;;;-145.72;100.00
15914;BME280;8055;51.930;8.840;2023-03-13T11:51:24;74159.28;;;-145.72;100.00
15914;BME280;8055;51.930;8.840;2023-03-13T11:56:42;74159.28;;;-145.72;100.00
15914;BME280;8055;51.930;8.840;2023-03-13T11:59:32;74124.13;;;-145.72;100.00
15914;BME280;8055;51.930;8.840;2023-03-13T12:04:55;74130.31;;;-145.72;100.00
15914;BME280;8055;51.930;8.840;2023-03-13T12:10:25;74082.75;;;-145.72;100.00
15914;BME280;8055;51.930;8.840;2023-03-13T12:16:05;74020.72;;;-145.72;100.00
15914;BME280;8055;51.930;8.840;2023-03-13T12:18:35;74035.19;;;-145.72;100.00
15914;BME280;8055;51.930;8.840;2023-03-13T12:23:41;74031.03;;;-145.72;100.00
15914;BME280;8055;51.930;8.840;2023-03-13T12:26:13;74031.03;;;-145.72;100.00
15914;BME280;8055;51.930;8.840;2023-03-13T12:28:44;74026.91;;;-145.72;100.00
15914;BME280;8055;51.930;8.840;2023-03-13T12:34:13;74022.78;;;-145.72;100.00
15914;BME280;8055;51.930;8.840;2023-03-13T12:39:29;73977.28;;;-145.72;100.00
15914;BME280;8055;51.930;8.840;2023-03-13T12:44:54;73962.78;;;-145.72;100.00
15914;BME280;8055;51.930;8.840;2023-03-13T12:47:24;73983.47;;;-145.72;100.00
15914;BME280;8055;51.930;8.840;2023-03-13T13:01:39;73958.66;;;-145.72;100.00
15914;BME280;8055;51.930;8.840;2023-03-13T13:04:11;73948.31;;;-145.72;100.00
15914;BME280;8055;51.930;8.840;2023-03-13T13:06:57;73950.38;;;-145.72;100.00
15914;BME280;8055;51.930;8.840;2023-03-13T13:12:19;73929.69;;;-145.72;100.00
15914;BME280;8055;51.930;8.840;2023-03-13T13:17:18;73911.09;;;-145.72;100.00
15914;BME280;8055;51.930;8.840;2023-03-13T13:19:46;73900.75;;;-145.72;100.00
15914;BME280;8055;51.930;8.840;2023-03-13T13:25:27;73911.09;;;-145.72;100.00
15914;BME280;8055;51.930;8.840;2023-03-13T13:27:53;73921.44;;;-145.72;100.00
15914;BME280;8055;51.930;8.840;2023-03-13T13:32:54;73917.28;;;-145.72;100.00
15914;BME280;8055;51.930;8.840;2023-03-13T13:35:33;73917.28;;;-145.72;100.00
15914;BME280;8055;51.930;8.840;2023-03-13T13:41:01;73931.78;;;-145.72;100.00
15914;BME280;8055;51.930;8.840;2023-03-13T13:43:48;73898.69;;;-145.72;100.00
15914;BME280;8055;51.930;8.840;2023-03-13T13:56:37;73884.19;;;-145.72;100.00
15914;BME280;8055;51.930;8.840;2023-03-13T14:01:48;73884.19;;;-145.72;100.00
15914;BME280;8055;51.930;8.840;2023-03-13T14:04:28;73865.59;;;-145.72;100.00
15914;BME280;8055;51.930;8.840;2023-03-13T14:06:58;73859.38;;;-145.72;100.00
15914;BME280;8055;51.930;8.840;2023-03-13T14:09:46;73873.84;;;-145.72;100.00
15914;BME280;8055;51.930;8.840;2023-03-13T14:12:28;73871.78;;;-145.72;100.00
15914;BME280;8055;51.930;8.840;2023-03-13T14:15:30;73875.94;;;-145.72;100.00
15914;BME280;8055;51.930;8.840;2023-03-13T14:17:58;73892.47;;;-145.72;100.00
15914;BME280;8055;51.930;8.840;2023-03-13T14:23:00;73888.34;;;-145.72;100.00
15914;BME280;8055;51.930;8.840;2023-03-13T14:25:28;73888.34;;;-145.72;100.00
15914;BME280;8055;51.930;8.840;2023-03-13T14:28:04;73894.53;;;-145.72;100.00